Time;durP1;ratioP1;P1;durP2;ratioP2;P2;SDS_P1;SDS_P2;PMS_P1;PMS_P2;Temp;Humidity;BMP_temperature;BMP_pressure;BME280_temperature;BME280_humidity;BME280_pressure;Samples;Min_cycle;Max_cycle;Signal;HPM_P1;HPM_P2
2021/10/09 00:01:15;;;;;;;36.88;25.70;;;13.20;90.50;;;;;;5094459;28;20032;-78
2021/10/09 00:03:41;;;;;;;33.65;22.90;;;13.10;90.60;;;;;;5093492;28;20023;-78
2021/10/09 00:06:07;;;;;;;30.65;22.42;;;13.10;90.70;;;;;;5093747;28;20063;-78
2021/10/09 00:08:32;;;;;;;35.58;23.73;;;13.10;90.80;;;;;;5094042;28;20035;-78
2021/10/09 00:10:59;;;;;;;36.03;24.38;;;13.10;90.90;;;;;;5076578;28;20054;-78
2021/10/09 00:13:25;;;;;;;34.00;23.17;;;13.00;90.80;;;;;;5093157;28;20104;-78
2021/10/09 00:15:50;;;;;;;35.10;24.50;;;13.00;90.90;;;;;;5076700;28;20107;-78
2021/10/09 00:18:16;;;;;;;37.13;24.52;;;13.00;91.00;;;;;;5093179;28;20372;-78
2021/10/09 00:20:42;;;;;;;32.63;22.98;;;13.00;91.00;;;;;;5093382;28;20447;-78
2021/10/09 00:23:07;;;;;;;31.00;22.90;;;13.00;91.10;;;;;;5093238;28;20418;-78
2021/10/09 00:25:33;;;;;;;33.13;22.63;;;13.00;91.20;;;;;;5093161;28;20028;-78
2021/10/09 00:27:59;;;;;;;37.95;23.85;;;13.00;91.20;;;;;;5094119;28;20047;-78
2021/10/09 00:30:25;;;;;;;38.38;24.70;;;12.90;91.20;;;;;;5094175;28;20024;-78
2021/10/09 00:32:51;;;;;;;33.80;24.52;;;12.90;91.20;;;;;;5076428;28;20028;-78
2021/10/09 00:35:17;;;;;;;39.15;25.20;;;12.80;91.30;;;;;;5094195;28;20023;-78
2021/10/09 00:37:42;;;;;;;37.13;23.95;;;12.80;91.40;;;;;;5092696;28;20024;-78
2021/10/09 00:40:08;;;;;;;35.65;24.67;;;12.80;91.40;;;;;;5093966;28;20024;-77
2021/10/09 00:42:34;;;;;;;38.47;26.25;;;12.80;91.50;;;;;;5076166;28;20028;-77
2021/10/09 00:45:00;;;;;;;38.92;26.13;;;12.80;91.50;;;;;;5094615;28;20024;-77
2021/10/09 00:47:25;;;;;;;33.50;25.27;;;12.80;91.60;;;;;;5094122;28;20036;-77
2021/10/09 00:49:51;;;;;;;38.67;26.13;;;12.80;91.60;;;;;;5093358;28;20328;-78
2021/10/09 00:52:18;;;;;;;37.00;25.08;;;12.70;91.60;;;;;;5094084;28;20020;-78
2021/10/09 00:54:47;;;;;;;35.50;25.15;;;12.70;91.60;;;;;;5092415;28;20443;-78
2021/10/09 00:57:16;;;;;;;34.08;23.60;;;12.70;91.70;;;;;;5093859;28;20038;-77
2021/10/09 00:59:42;;;;;;;37.42;26.70;;;12.70;91.70;;;;;;5093782;28;20472;-77
2021/10/09 01:02:08;;;;;;;35.58;25.27;;;12.70;91.80;;;;;;5059118;28;20063;-77
2021/10/09 01:04:35;;;;;;;39.22;25.77;;;12.60;91.80;;;;;;5092564;28;20525;-77
2021/10/09 01:07:03;;;;;;;40.70;27.33;;;12.60;91.80;;;;;;5092806;28;20036;-77
2021/10/09 01:09:29;;;;;;;36.40;25.50;;;12.60;91.90;;;;;;5092154;28;20031;-77
2021/10/09 01:11:54;;;;;;;38.50;26.20;;;12.60;92.00;;;;;;5075422;28;20028;-78
2021/10/09 01:14:20;;;;;;;42.28;27.77;;;12.60;92.00;;;;;;5075328;28;20024;-77
2021/10/09 01:16:48;;;;;;;37.45;26.02;;;12.60;92.00;;;;;;5093805;28;20036;-77
2021/10/09 01:19:14;;;;;;;39.40;26.10;;;12.50;92.00;;;;;;5075887;28;20030;-78
2021/10/09 01:21:45;;;;;;;39.67;27.90;;;12.50;92.00;;;;;;5059046;28;20455;-79
2021/10/09 01:24:12;;;;;;;40.50;27.38;;;12.50;92.10;;;;;;5093257;28;20016;-77
2021/10/09 01:26:38;;;;;;;39.08;26.73;;;12.50;92.10;;;;;;5092093;28;20395;-77
2021/10/09 01:29:06;;;;;;;41.38;26.60;;;12.60;92.20;;;;;;5094101;28;20020;-77
2021/10/09 01:31:32;;;;;;;37.70;26.33;;;12.40;92.20;;;;;;5092025;28;20040;-78
2021/10/09 01:33:58;;;;;;;39.70;29.55;;;12.40;92.30;;;;;;5093310;28;20024;-78
2021/10/09 01:36:32;;;;;;;41.60;27.70;;;12.40;92.40;;;;;;5075534;28;20483;-78
2021/10/09 01:38:58;;;;;;;42.08;27.63;;;12.40;92.40;;;;;;5092062;28;20031;-78
2021/10/09 01:41:24;;;;;;;40.23;27.50;;;12.40;92.40;;;;;;5093293;28;20148;-78
2021/10/09 01:43:50;;;;;;;41.33;28.33;;;12.40;92.40;;;;;;5092547;28;20488;-78
2021/10/09 01:46:15;;;;;;;40.70;27.67;;;12.40;92.40;;;;;;5095421;28;20050;-78
2021/10/09 01:48:41;;;;;;;38.93;26.43;;;12.30;92.40;;;;;;5079309;28;20392;-78
2021/10/09 01:51:09;;;;;;;41.05;27.48;;;12.30;92.50;;;;;;5097308;28;20541;-77
2021/10/09 01:53:36;;;;;;;40.50;27.98;;;12.30;92.50;;;;;;5097510;28;20024;-78
2021/10/09 01:56:02;;;;;;;42.23;28.70;;;12.20;92.60;;;;;;5096673;28;20039;-78
2021/10/09 01:58:28;;;;;;;43.30;29.27;;;12.20;92.60;;;;;;5097240;28;20028;-78
2021/10/09 02:00:54;;;;;;;40.73;28.13;;;12.20;92.80;;;;;;5079248;28;20150;-78
2021/10/09 02:03:21;;;;;;;41.22;28.38;;;12.20;92.80;;;;;;5097437;28;20456;-78
2021/10/09 02:05:47;;;;;;;35.53;25.75;;;12.20;92.90;;;;;;5095803;28;20468;-78
2021/10/09 02:08:12;;;;;;;41.53;28.20;;;12.20;92.90;;;;;;5095764;28;20035;-78
2021/10/09 02:13:18;;;;;;;45.15;30.35;;;12.10;93.00;;;;;;5095875;28;20028;-78
2021/10/09 02:26:30;;;;;;;42.08;29.63;;;12.00;93.10;;;;;;5096588;28;20491;-78
2021/10/09 02:28:55;;;;;;;43.97;29.83;;;12.00;93.10;;;;;;5095134;28;20020;-77
2021/10/09 02:31:21;;;;;;;38.65;27.65;;;12.00;93.10;;;;;;5078435;28;20144;-77
2021/10/09 02:33:46;;;;;;;40.10;27.48;;;12.00;93.20;;;;;;5078350;28;20089;-78
2021/10/09 02:36:12;;;;;;;39.38;27.55;;;12.00;93.20;;;;;;5095726;28;20075;-78
2021/10/09 02:38:38;;;;;;;43.65;27.65;;;12.00;93.20;;;;;;5094890;28;20020;-78
2021/10/09 02:41:04;;;;;;;43.35;30.08;;;11.90;93.20;;;;;;5095113;28;20084;-78
2021/10/09 02:43:29;;;;;;;47.10;30.15;;;11.80;93.20;;;;;;5078153;28;20028;-76
2021/10/09 02:45:55;;;;;;;44.93;30.43;;;12.00;93.30;;;;;;5095193;28;20019;-77
2021/10/09 02:48:21;;;;;;;44.47;30.60;;;11.90;93.30;;;;;;5095093;28;20491;-78
2021/10/09 02:50:46;;;;;;;45.43;30.83;;;11.80;93.40;;;;;;5095217;28;20491;-78
2021/10/09 02:53:12;;;;;;;44.93;30.27;;;11.80;93.40;;;;;;5094722;28;20111;-78
2021/10/09 02:55:38;;;;;;;46.27;29.27;;;11.80;93.40;;;;;;5095892;28;20035;-78
2021/10/09 02:58:04;;;;;;;44.37;30.43;;;11.80;93.50;;;;;;5077607;28;20032;-78
2021/10/09 03:00:29;;;;;;;44.27;30.23;;;11.80;93.50;;;;;;5078412;28;20031;-78
2021/10/09 03:02:55;;;;;;;43.20;28.73;;;11.80;93.50;;;;;;5094924;28;20396;-78
2021/10/09 03:05:21;;;;;;;43.20;30.38;;;11.70;93.50;;;;;;5094513;28;20034;-78
2021/10/09 03:07:47;;;;;;;44.63;30.17;;;11.70;93.60;;;;;;5077904;28;20456;-77
2021/10/09 03:10:13;;;;;;;46.63;30.20;;;11.70;93.60;;;;;;5094312;28;20038;-78
2021/10/09 03:12:40;;;;;;;47.17;30.07;;;11.70;93.70;;;;;;5095484;28;20028;-78
2021/10/09 03:15:07;;;;;;;44.83;29.33;;;11.60;93.70;;;;;;5095488;28;20353;-79
2021/10/09 03:17:32;;;;;;;44.43;29.07;;;11.60;93.70;;;;;;5077834;28;20039;-78
2021/10/09 03:19:58;;;;;;;43.37;29.63;;;11.60;93.70;;;;;;5095825;28;20110;-79
2021/10/09 03:22:24;;;;;;;41.50;28.90;;;11.60;93.80;;;;;;5094508;28;20060;-77
2021/10/09 03:24:50;;;;;;;42.93;27.80;;;11.60;93.80;;;;;;5094210;28;20028;-79
2021/10/09 03:27:16;;;;;;;43.70;28.27;;;11.50;93.80;;;;;;5094142;28;20189;-78
2021/10/09 03:29:42;;;;;;;45.80;30.27;;;11.60;93.80;;;;;;5095268;28;20111;-79
2021/10/09 03:32:07;;;;;;;46.43;29.37;;;11.50;93.80;;;;;;5076986;28;20495;-78
2021/10/09 03:34:33;;;;;;;48.90;31.20;;;11.50;93.90;;;;;;5093771;28;20028;-78
2021/10/09 03:37:04;;;;;;;44.60;29.90;;;11.40;93.90;;;;;;5095315;28;20075;-78
2021/10/09 03:39:30;;;;;;;43.07;29.40;;;11.40;94.00;;;;;;5095065;28;20059;-78
2021/10/09 03:42:07;;;;;;;43.23;29.10;;;11.40;94.00;;;;;;5093742;28;20089;-78
2021/10/09 03:44:37;;;;;;;42.73;28.90;;;11.40;94.00;;;;;;5094907;28;20032;-78
2021/10/09 03:54:50;;;;;;;40.63;28.63;;;11.30;94.10;;;;;;5094125;28;20027;-78
2021/10/09 03:57:18;;;;;;;46.23;29.33;;;11.20;94.10;;;;;;5093447;28;20430;-78
2021/10/09 03:59:44;;;;;;;43.13;29.00;;;11.20;94.20;;;;;;5093739;28;20028;-78
2021/10/09 04:02:09;;;;;;;45.37;29.00;;;11.20;94.40;;;;;;5060131;28;20031;-78
2021/10/09 04:04:35;;;;;;;46.97;29.83;;;11.20;94.20;;;;;;5060178;28;20032;-78
2021/10/09 04:07:01;;;;;;;42.37;27.87;;;11.10;94.20;;;;;;5076815;28;20028;-78
2021/10/09 04:09:26;;;;;;;47.43;30.03;;;11.10;94.20;;;;;;5076439;28;20036;-78
2021/10/09 04:11:52;;;;;;;46.70;29.87;;;11.10;94.20;;;;;;5094719;28;20046;-78
2021/10/09 04:14:17;;;;;;;47.07;30.00;;;11.10;94.20;;;;;;5094695;28;20491;-78
2021/10/09 04:16:43;;;;;;;44.53;29.37;;;11.00;94.20;;;;;;5092067;28;20070;-79
2021/10/09 04:19:09;;;;;;;47.60;30.03;;;11.00;94.20;;;;;;5093091;28;20388;-78
2021/10/09 04:21:34;;;;;;;44.77;30.90;;;11.00;94.20;;;;;;5093008;28;20527;-79
2021/10/09 04:24:00;;;;;;;42.00;29.17;;;11.00;94.30;;;;;;5075038;28;20486;-78
2021/10/09 04:26:25;;;;;;;44.93;29.80;;;10.90;94.60;;;;;;5084074;28;20040;-78
2021/10/09 04:28:51;;;;;;;45.60;30.03;;;10.90;94.30;;;;;;5087422;28;20024;-78
2021/10/09 04:31:17;;;;;;;47.93;30.37;;;10.90;94.30;;;;;;5076184;28;20153;-78
2021/10/09 04:33:42;;;;;;;44.83;29.47;;;10.90;94.30;;;;;;5093244;28;20028;-78
2021/10/09 04:36:08;;;;;;;45.40;30.50;;;10.80;94.30;;;;;;5076472;28;20078;-79
2021/10/09 04:38:34;;;;;;;47.73;30.60;;;10.80;94.30;;;;;;5092751;28;20020;-78
2021/10/09 04:41:00;;;;;;;46.03;29.77;;;10.80;94.60;;;;;;5093999;28;20464;-78
2021/10/09 04:43:26;;;;;;;49.57;32.00;;;10.70;94.40;;;;;;5092878;28;20078;-78
2021/10/09 04:45:52;;;;;;;47.50;31.73;;;10.70;94.50;;;;;;5092579;28;20020;-78
2021/10/09 04:48:17;;;;;;;47.33;31.47;;;10.60;94.50;;;;;;5092570;28;20028;-78
2021/10/09 04:50:43;;;;;;;49.57;31.03;;;10.70;94.50;;;;;;5075828;28;20032;-78
2021/10/09 04:53:09;;;;;;;48.73;31.17;;;10.70;94.60;;;;;;5058977;28;20342;-78
2021/10/09 04:55:35;;;;;;;46.80;30.53;;;10.60;94.80;;;;;;5093703;28;20027;-78
2021/10/09 04:58:01;;;;;;;47.70;31.33;;;10.60;94.60;;;;;;5093883;28;20472;-77
2021/10/09 05:00:26;;;;;;;52.60;31.47;;;10.60;94.70;;;;;;5093766;28;20024;-78
2021/10/09 05:02:52;;;;;;;50.07;30.33;;;10.50;94.70;;;;;;5092509;28;20024;-77
2021/10/09 05:05:17;;;;;;;50.43;31.63;;;10.60;94.80;;;;;;5075631;28;20025;-77
2021/10/09 05:07:43;;;;;;;50.53;31.73;;;10.40;94.80;;;;;;5094209;28;20087;-78
2021/10/09 05:10:09;;;;;;;51.00;31.70;;;10.50;94.80;;;;;;5075505;28;20153;-78
2021/10/09 05:12:36;;;;;;;53.10;33.00;;;10.40;94.80;;;;;;5092333;28;20369;-77
2021/10/09 05:15:03;;;;;;;49.70;32.37;;;10.40;94.70;;;;;;5092094;28;20055;-78
2021/10/09 05:17:29;;;;;;;47.60;31.93;;;10.40;94.80;;;;;;5092192;28;20048;-77
2021/10/09 05:19:55;;;;;;;53.73;31.73;;;10.50;94.80;;;;;;5092453;28;20416;-77
2021/10/09 05:22:20;;;;;;;52.37;32.43;;;10.40;95.00;;;;;;5096634;28;20024;-77
2021/10/09 05:24:49;;;;;;;52.63;31.87;;;10.40;94.80;;;;;;5062879;28;20119;-77
2021/10/09 05:27:15;;;;;;;50.47;31.67;;;10.40;94.80;;;;;;5090730;28;20101;-77
2021/10/09 05:29:41;;;;;;;51.10;33.10;;;10.30;94.80;;;;;;5075645;28;20427;-78
2021/10/09 05:32:07;;;;;;;49.57;31.40;;;10.30;94.80;;;;;;5058928;28;20025;-78
2021/10/09 05:34:33;;;;;;;54.27;33.47;;;10.30;95.10;;;;;;5075415;28;20461;-78
2021/10/09 05:37:00;;;;;;;49.50;33.07;;;10.30;94.90;;;;;;5075918;28;20016;-78
2021/10/09 05:39:26;;;;;;;51.23;33.07;;;10.20;95.00;;;;;;5077237;28;20538;-78
2021/10/09 05:41:52;;;;;;;50.27;31.60;;;10.20;95.10;;;;;;5075765;28;20028;-79
2021/10/09 05:44:17;;;;;;;48.70;32.00;;;10.20;95.10;;;;;;5075699;28;20173;-79
2021/10/09 05:46:43;;;;;;;53.20;32.57;;;10.20;95.10;;;;;;5077169;28;20115;-79
2021/10/09 05:49:09;;;;;;;53.67;34.13;;;10.10;95.10;;;;;;5075646;28;20116;-78
2021/10/09 05:51:52;;;;;;;52.33;32.03;;;10.10;95.20;;;;;;5059048;28;20027;-79
2021/10/09 05:57:10;;;;;;;49.95;31.85;;;10.10;95.20;;;;;;5076904;28;20032;-79
2021/10/09 06:02:14;;;;;;;52.53;32.67;;;10.00;95.20;;;;;;5075675;28;20044;-79
2021/10/09 06:43:08;;;;;;;47.47;30.05;;;10.10;95.60;;;;;;5096889;28;20521;-78
2021/10/09 07:01:39;;;;;;;44.03;28.23;;;10.20;95.70;;;;;;5086368;28;20051;-78
2021/10/09 07:04:05;;;;;;;49.30;29.57;;;10.20;95.70;;;;;;5094298;28;20468;-79
2021/10/09 07:06:31;;;;;;;49.27;30.90;;;10.30;95.70;;;;;;5077457;28;20057;-77
2021/10/09 07:08:57;;;;;;;47.20;30.67;;;10.30;95.80;;;;;;5077452;28;20028;-77
2021/10/09 07:11:23;;;;;;;48.07;31.20;;;10.30;95.80;;;;;;5060786;28;20024;-77
2021/10/09 07:13:48;;;;;;;50.73;31.67;;;10.40;95.80;;;;;;5094177;28;20366;-78
2021/10/09 07:16:14;;;;;;;49.37;32.37;;;10.50;95.90;;;;;;5095257;28;20453;-78
2021/10/09 07:18:40;;;;;;;49.63;32.17;;;10.40;95.90;;;;;;5077255;28;20124;-77
2021/10/09 07:21:05;;;;;;;46.53;31.87;;;10.40;95.90;;;;;;5089746;28;20564;-78
2021/10/09 07:23:31;;;;;;;48.97;31.90;;;10.40;95.90;;;;;;5080409;28;20025;-78
2021/10/09 07:25:57;;;;;;;53.40;32.73;;;10.50;96.00;;;;;;5073697;28;20112;-78
2021/10/09 07:28:22;;;;;;;45.37;29.77;;;10.50;96.00;;;;;;5074804;28;20064;-78
2021/10/09 07:30:48;;;;;;;48.83;31.73;;;10.50;96.00;;;;;;5073653;28;20029;-78
2021/10/09 07:33:13;;;;;;;48.53;30.80;;;10.50;96.00;;;;;;5073925;28;20028;-78
2021/10/09 07:35:39;;;;;;;46.77;32.17;;;10.60;96.10;;;;;;5073629;28;20028;-78
2021/10/09 07:38:05;;;;;;;45.87;30.67;;;10.60;96.10;;;;;;5073642;28;20434;-78
2021/10/09 07:40:30;;;;;;;48.67;29.77;;;10.70;96.10;;;;;;5075075;28;20492;-78
2021/10/09 07:42:56;;;;;;;45.40;31.00;;;10.70;96.10;;;;;;5067557;28;20066;-78
2021/10/09 07:45:22;;;;;;;44.30;29.60;;;10.80;96.00;;;;;;5084362;28;20060;-78
2021/10/09 07:47:47;;;;;;;46.57;29.97;;;10.80;96.00;;;;;;5073685;28;20035;-77
2021/10/09 07:50:13;;;;;;;49.77;32.00;;;10.80;96.00;;;;;;5057002;28;20031;-77
2021/10/09 07:52:41;;;;;;;46.83;29.93;;;10.80;96.00;;;;;;5074463;28;20078;-77
2021/10/09 07:55:08;;;;;;;49.17;30.43;;;10.80;96.00;;;;;;5074396;28;20017;-78
2021/10/09 07:57:34;;;;;;;46.70;31.10;;;10.90;96.00;;;;;;5072931;28;20039;-77
2021/10/09 08:00:00;;;;;;;46.10;30.30;;;10.90;96.00;;;;;;5074119;28;20017;-77
2021/10/09 08:02:26;;;;;;;44.13;31.13;;;10.90;96.00;;;;;;5093810;28;20024;-78
2021/10/09 08:04:51;;;;;;;48.07;30.07;;;10.90;95.90;;;;;;5076435;28;20027;-78
2021/10/09 08:07:17;;;;;;;49.13;31.63;;;11.00;95.90;;;;;;5093339;28;20028;-77
2021/10/09 08:09:43;;;;;;;44.23;29.00;;;11.00;95.80;;;;;;5094361;28;20020;-79
2021/10/09 08:12:08;;;;;;;48.27;30.67;;;11.00;95.70;;;;;;5093147;28;20093;-77
2021/10/09 08:14:34;;;;;;;48.67;31.63;;;11.00;95.60;;;;;;5094313;28;20028;-77
2021/10/09 08:17:00;;;;;;;42.40;27.53;;;11.00;95.60;;;;;;5094312;28;20065;-78
2021/10/09 08:19:25;;;;;;;46.20;29.57;;;11.10;95.60;;;;;;5093218;28;20033;-77
2021/10/09 08:21:52;;;;;;;42.23;28.77;;;11.10;95.60;;;;;;5095004;28;20103;-78
2021/10/09 08:24:39;;;;;;;42.73;28.27;;;11.10;95.50;;;;;;5094707;28;20081;-77
2021/10/09 08:35:32;;;;;;;40.43;26.83;;;11.30;95.30;;;;;;5094166;28;20072;-77
2021/10/09 08:40:42;;;;;;;;;;;11.50;95.40;;;;;;5093585;28;20050;-77
2021/10/09 08:43:08;;;;;;;37.85;24.27;;;11.60;95.40;;;;;;5094379;28;20247;-77
2021/10/09 08:45:33;;;;;;;40.55;25.58;;;11.70;95.40;;;;;;5094024;28;20464;-76
2021/10/09 08:47:59;;;;;;;39.15;25.98;;;11.70;95.40;;;;;;5093893;28;20035;-77
2021/10/09 08:50:24;;;;;;;40.25;26.88;;;11.80;95.60;;;;;;5092201;28;20114;-78
2021/10/09 08:52:57;;;;;;;39.42;26.02;;;11.90;95.30;;;;;;5092765;28;20030;-77
2021/10/09 08:55:25;;;;;;;38.03;25.35;;;12.00;95.20;;;;;;5092861;28;20026;-78
2021/10/09 08:57:51;;;;;;;39.35;25.63;;;12.00;95.00;;;;;;5093994;28;20024;-77
2021/10/09 09:00:22;;;;;;;41.55;26.23;;;12.10;94.90;;;;;;5092873;28;20120;-77
2021/10/09 09:03:04;;;;;;;38.95;25.33;;;12.20;94.80;;;;;;5080428;28;20054;-78
2021/10/09 09:05:59;;;;;;;35.97;26.27;;;12.30;94.80;;;;;;5077169;28;20077;-78
2021/10/09 09:41:21;;;;;;;34.92;24.27;;;13.30;93.10;;;;;;5114249;28;20030;-78
2021/10/09 09:43:49;;;;;;;31.70;23.48;;;13.50;93.00;;;;;;5097889;28;20074;-77
2021/10/09 09:46:22;;;;;;;33.13;22.60;;;13.80;93.00;;;;;;5092059;28;20137;-77
2021/10/09 09:48:47;;;;;;;31.30;21.10;;;14.20;92.80;;;;;;5092226;28;20020;-77
2021/10/09 09:51:16;;;;;;;26.83;19.92;;;14.60;93.00;;;;;;5092400;28;20039;-77
2021/10/09 09:53:46;;;;;;;25.40;18.58;;;15.00;93.20;;;;;;5092265;28;20016;-77
2021/10/09 09:56:13;;;;;;;23.85;17.40;;;15.70;93.10;;;;;;5093229;28;20024;-77
2021/10/09 09:58:41;;;;;;;23.48;18.40;;;16.30;93.00;;;;;;5075796;28;20153;-77
2021/10/09 10:01:10;;;;;;;21.00;15.18;;;16.90;92.50;;;;;;5081906;28;20048;-77
2021/10/09 10:03:36;;;;;;;18.20;14.30;;;17.60;91.90;;;;;;5112097;28;20027;-77
2021/10/09 10:06:04;;;;;;;18.83;14.35;;;18.30;91.40;;;;;;5090163;28;20028;-77
2021/10/09 10:08:29;;;;;;;20.33;14.45;;;19.10;90.60;;;;;;5075520;28;20451;-77
2021/10/09 10:10:57;;;;;;;20.75;14.57;;;19.70;89.20;;;;;;5076443;28;20058;-80
2021/10/09 10:13:28;;;;;;;16.52;12.27;;;20.30;85.50;;;;;;5059157;28;20086;-78
2021/10/09 10:15:58;;;;;;;19.35;13.68;;;20.90;82.40;;;;;;5075624;28;20055;-79
2021/10/09 10:18:46;;;;;;;16.35;12.95;;;21.50;78.80;;;;;;5076576;28;20032;-78
2021/10/09 10:21:16;;;;;;;20.83;14.27;;;22.10;74.30;;;;;;5075055;28;20491;-78
2021/10/09 10:23:45;;;;;;;21.83;13.75;;;22.60;73.00;;;;;;5076252;28;20031;-81
2021/10/09 10:26:20;;;;;;;16.95;14.30;;;23.00;69.80;;;;;;5076333;28;20032;-78
2021/10/09 10:28:54;;;;;;;16.63;13.23;;;23.40;66.40;;;;;;5099895;28;20094;-78
2021/10/09 10:31:21;;;;;;;17.85;13.63;;;23.60;64.70;;;;;;5116582;28;20051;-78
2021/10/09 10:33:56;;;;;;;15.20;13.05;;;23.90;64.50;;;;;;5089180;28;20044;-78
2021/10/09 10:36:44;;;;;;;15.98;12.35;;;24.30;63.00;;;;;;5076334;28;20029;-78
2021/10/09 10:39:10;;;;;;;18.13;13.73;;;24.70;59.90;;;;;;5074898;28;20032;-78
2021/10/09 10:41:45;;;;;;;18.15;13.15;;;25.20;59.70;;;;;;5082782;28;20400;-78
2021/10/09 10:44:43;;;;;;;14.73;11.77;;;25.60;57.70;;;;;;5075811;28;20634;-78
2021/10/09 10:47:36;;;;;;;17.80;12.90;;;25.90;55.70;;;;;;5076528;28;20035;-78
2021/10/09 10:50:09;;;;;;;20.10;14.07;;;26.30;54.40;;;;;;5091472;28;20456;-80
2021/10/09 10:53:15;;;;;;;16.40;13.65;;;26.60;54.20;;;;;;5058965;28;20051;-79
2021/10/09 10:56:08;;;;;;;15.15;12.85;;;26.80;52.00;;;;;;5075785;28;20033;-78
2021/10/09 10:58:34;;;;;;;;;;;27.00;51.50;;;;;;5091938;28;20020;-78
2021/10/09 11:01:22;;;;;;;17.00;12.07;;;27.30;52.80;;;;;;5074497;28;20414;-78
2021/10/09 11:03:50;;;;;;;14.68;12.90;;;27.70;51.20;;;;;;5074321;28;20020;-79
2021/10/09 11:06:17;;;;;;;14.30;12.60;;;28.00;50.60;;;;;;5074317;28;20028;-77
2021/10/09 11:08:45;;;;;;;16.77;12.15;;;28.20;49.60;;;;;;5091405;28;20043;-77
2021/10/09 11:11:11;;;;;;;19.30;14.43;;;28.30;48.40;;;;;;5075338;28;20025;-77
2021/10/09 11:13:41;;;;;;;16.80;12.80;;;28.50;47.50;;;;;;5075552;28;20021;-77
2021/10/09 11:16:07;;;;;;;16.80;12.45;;;28.80;47.10;;;;;;5057831;28;20107;-77
2021/10/09 11:18:50;;;;;;;15.13;12.13;;;29.10;46.50;;;;;;5079373;28;20016;-77
2021/10/09 11:21:17;;;;;;;16.48;13.10;;;29.20;44.60;;;;;;5095553;28;20035;-77
2021/10/09 11:23:54;;;;;;;15.75;12.18;;;29.50;45.30;;;;;;5095690;28;20026;-77
2021/10/09 11:26:21;;;;;;;13.75;10.90;;;29.70;44.30;;;;;;5095141;28;20031;-77
2021/10/09 11:28:58;;;;;;;15.77;12.38;;;29.90;44.60;;;;;;5094036;28;20036;-77
2021/10/09 11:31:27;;;;;;;14.40;12.10;;;30.10;43.90;;;;;;5090298;28;20380;-76
2021/10/09 11:33:56;;;;;;;17.08;12.30;;;30.30;43.30;;;;;;5081896;28;20029;-77
2021/10/09 11:36:23;;;;;;;15.50;12.32;;;30.50;42.70;;;;;;5088803;28;20417;-77
2021/10/09 11:39:07;;;;;;;15.18;11.50;;;30.60;42.50;;;;;;5095268;28;20108;-77
2021/10/09 11:41:33;;;;;;;15.70;11.63;;;30.80;41.40;;;;;;5093699;28;20107;-77
2021/10/09 11:44:08;;;;;;;15.00;12.50;;;31.00;41.70;;;;;;5074917;28;20123;-77
2021/10/09 11:55:15;;;;;;;14.68;12.15;;;31.70;40.20;;;;;;5074735;28;20090;-77
2021/10/09 11:57:40;;;;;;;16.13;13.05;;;31.80;39.40;;;;;;5074901;28;20483;-77
2021/10/09 12:00:28;;;;;;;14.27;12.48;;;31.80;39.40;;;;;;5073272;28;20108;-77
2021/10/09 12:03:01;;;;;;;17.30;12.68;;;31.90;38.90;;;;;;5074328;28;20358;-76
2021/10/09 12:05:53;;;;;;;14.38;11.45;;;32.10;38.80;;;;;;5074597;28;20501;-76
2021/10/09 12:08:26;;;;;;;12.63;11.32;;;32.30;38.20;;;;;;5073097;28;20031;-77
2021/10/09 12:11:22;;;;;;;16.42;12.30;;;32.40;38.80;;;;;;5072794;28;20028;-76
2021/10/09 12:13:48;;;;;;;14.32;11.43;;;32.60;37.70;;;;;;5072975;28;20031;-77
2021/10/09 12:16:15;;;;;;;13.75;12.02;;;32.70;38.20;;;;;;5073028;28;20028;-76
2021/10/09 12:18:51;;;;;;;14.57;12.30;;;32.80;37.60;;;;;;5074416;28;20071;-77
2021/10/09 12:21:16;;;;;;;15.73;12.27;;;33.10;37.00;;;;;;5073059;28;20064;-77
2021/10/09 12:23:42;;;;;;;15.85;12.60;;;33.10;37.10;;;;;;5073919;28;20106;-77
2021/10/09 12:26:16;;;;;;;14.07;11.63;;;33.30;36.90;;;;;;5072771;28;20082;-76
2021/10/09 12:29:09;;;;;;;15.85;13.07;;;33.40;37.00;;;;;;5072669;28;20036;-76
2021/10/09 12:31:38;;;;;;;14.57;11.88;;;33.50;35.80;;;;;;5081963;28;20044;-76
2021/10/09 12:34:23;;;;;;;13.85;11.70;;;33.60;36.00;;;;;;5094215;28;20028;-78
2021/10/09 12:37:27;;;;;;;15.48;12.88;;;33.70;35.90;;;;;;5077182;28;20020;-78
2021/10/09 12:40:09;;;;;;;13.52;11.70;;;33.90;35.20;;;;;;5093891;28;20022;-77
2021/10/09 12:42:34;;;;;;;13.48;11.57;;;34.00;35.20;;;;;;5093947;28;20460;-77
2021/10/09 12:45:02;;;;;;;14.68;12.68;;;34.10;36.10;;;;;;5092570;28;20107;-78
2021/10/09 12:47:28;;;;;;;18.05;13.70;;;34.10;34.80;;;;;;5094095;28;20028;-77
2021/10/09 12:49:54;;;;;;;15.35;12.30;;;34.20;34.60;;;;;;5092840;28;20516;-78
2021/10/09 12:52:19;;;;;;;17.55;12.90;;;34.20;34.60;;;;;;5093801;28;20043;-77
2021/10/09 12:54:45;;;;;;;13.93;12.43;;;34.30;34.40;;;;;;5075609;28;20031;-78
2021/10/09 12:57:10;;;;;;;17.42;11.85;;;34.40;34.50;;;;;;5093679;28;20032;-78
2021/10/09 12:59:36;;;;;;;15.68;12.20;;;34.40;34.40;;;;;;5075990;28;20123;-78
2021/10/09 13:02:03;;;;;;;18.90;13.05;;;34.40;34.10;;;;;;5092529;28;20036;-77
2021/10/09 13:04:28;;;;;;;16.13;12.68;;;34.30;34.30;;;;;;5092512;28;20476;-77
2021/10/09 13:06:54;;;;;;;15.73;13.00;;;34.20;34.40;;;;;;5092729;28;20070;-77
2021/10/09 13:09:20;;;;;;;15.38;11.40;;;34.10;34.30;;;;;;5075854;28;20468;-78
2021/10/09 13:14:40;;;;;;;14.40;12.25;;;34.20;34.20;;;;;;5084300;28;20029;-78
2021/10/09 13:17:06;;;;;;;16.92;12.90;;;34.40;34.20;;;;;;5093341;28;20085;-77
2021/10/09 13:19:32;;;;;;;16.42;12.73;;;34.50;34.10;;;;;;5092174;28;20024;-78
2021/10/09 13:21:57;;;;;;;15.65;12.07;;;34.60;33.90;;;;;;5092194;28;20036;-76
2021/10/09 13:24:23;;;;;;;15.65;12.57;;;34.60;33.80;;;;;;5075473;28;20031;-78
2021/10/09 13:26:49;;;;;;;15.68;12.57;;;34.70;34.20;;;;;;5073456;28;20079;-79
2021/10/09 13:29:14;;;;;;;15.05;12.23;;;34.70;33.40;;;;;;5086224;28;20032;-77
2021/10/09 13:31:40;;;;;;;14.82;12.57;;;34.60;33.60;;;;;;5071928;28;20024;-78
2021/10/09 13:34:06;;;;;;;15.98;12.60;;;34.60;33.60;;;;;;5084438;28;20025;-78
2021/10/09 13:36:32;;;;;;;15.30;11.65;;;34.60;33.50;;;;;;5055123;28;20024;-77
2021/10/09 13:38:57;;;;;;;15.98;11.95;;;34.60;33.40;;;;;;5089646;28;20027;-78
2021/10/09 13:41:23;;;;;;;17.27;11.90;;;34.80;33.70;;;;;;5093816;28;20031;-78
2021/10/09 13:43:49;;;;;;;15.30;12.20;;;34.90;33.40;;;;;;5094019;28;20032;-78
2021/10/09 13:46:16;;;;;;;14.50;11.43;;;35.00;33.10;;;;;;5096038;28;20028;-78
2021/10/09 13:48:43;;;;;;;13.55;10.70;;;35.00;33.00;;;;;;5096077;28;20044;-78
2021/10/09 13:51:13;;;;;;;16.33;10.60;;;35.00;33.00;;;;;;5095063;28;20017;-77
2021/10/09 13:53:45;;;;;;;14.07;11.20;;;35.00;33.00;;;;;;5096693;28;20024;-76
2021/10/09 13:56:12;;;;;;;15.85;11.48;;;35.10;32.80;;;;;;5096234;28;20705;-77
2021/10/09 13:58:38;;;;;;;17.02;11.07;;;35.10;33.00;;;;;;5095460;28;20069;-77
2021/10/09 14:01:04;;;;;;;15.73;12.48;;;35.10;33.00;;;;;;5095821;28;20032;-76
2021/10/09 14:03:33;;;;;;;15.30;11.40;;;35.00;32.90;;;;;;5097129;28;20058;-77
2021/10/09 14:05:59;;;;;;;15.02;11.23;;;35.00;32.90;;;;;;5079553;28;20027;-74
2021/10/09 14:08:26;;;;;;;16.10;12.25;;;35.10;32.80;;;;;;5097181;28;20036;-76
2021/10/09 14:10:55;;;;;;;19.23;11.88;;;35.00;32.50;;;;;;5096878;28;20048;-77
2021/10/09 14:13:22;;;;;;;16.92;11.80;;;35.00;32.40;;;;;;5095860;28;20539;-76
2021/10/09 14:15:48;;;;;;;14.50;11.45;;;35.00;32.50;;;;;;5095628;28;20078;-76
2021/10/09 14:18:16;;;;;;;15.48;12.02;;;35.00;33.20;;;;;;5095745;28;20030;-78
2021/10/09 14:20:45;;;;;;;15.63;12.23;;;35.10;32.70;;;;;;5096700;28;20094;-76
2021/10/09 14:23:10;;;;;;;16.08;11.38;;;35.00;32.60;;;;;;5096930;28;20028;-76
2021/10/09 14:25:36;;;;;;;17.85;12.88;;;34.90;32.70;;;;;;5095762;28;20375;-76
2021/10/09 14:28:02;;;;;;;16.10;11.40;;;34.80;32.70;;;;;;5078238;28;20097;-76
2021/10/09 14:30:29;;;;;;;15.38;10.68;;;34.60;32.60;;;;;;5078683;28;20028;-76
2021/10/09 14:32:55;;;;;;;16.08;10.88;;;34.50;32.60;;;;;;5095210;28;20036;-76
2021/10/09 14:35:20;;;;;;;14.45;10.48;;;34.50;32.60;;;;;;5096607;28;20029;-76
2021/10/09 14:37:46;;;;;;;13.98;10.93;;;34.40;32.70;;;;;;5095322;28;20032;-76
2021/10/09 14:40:13;;;;;;;14.35;9.88;;;34.30;32.70;;;;;;5095155;28;20549;-76
2021/10/09 14:42:38;;;;;;;18.15;10.27;;;34.30;32.90;;;;;;5096567;28;20099;-76
2021/10/09 14:45:05;;;;;;;14.95;10.32;;;34.30;32.70;;;;;;5096174;28;20449;-76
2021/10/09 14:47:36;;;;;;;16.20;10.80;;;34.20;32.60;;;;;;5096225;28;20024;-77
2021/10/09 14:50:18;;;;;;;14.88;10.02;;;34.20;32.60;;;;;;5096144;28;20031;-75